Aérodrome :
LOGIN :

S'inscrire | Disclaimer

   EN    FR    IT 

 










Légende :    VFR   VFR Marginal   IFR   IFR Intensif   IFR Très Intensif
Visi : 
Plafond : 
>= 8 km
>= 3000ft
5 à 8 km
1000 à 3000 ft
1500m à 5 km
500 à 1000 ft
800 à 1500m
200 à 500 ft
< 800m
< 200 ft
Symboles :   Orages  Brouillard  Fortes neiges  Fortes précipitations  Vent > 20 kt
SIGMETs :   Divers  Orages  Givrage  Turbulence  Onde Orograph.  Cendres Volcan.






- Altitude de l'aérodrome : 53 ft
- Code IATA : HAM


EDDH - Hamburg

DERNIER METAR :
  • 250450Z 24006KT 4600 -DZ BR OVC004 02/02 Q1019 TEMPO 6000

METARs EXPIRÉS :
  • 250420Z 25005KT 230V290 4800 -DZ BR OVC004 02/02 Q1019 TEMPO 6000
  • 250350Z 23007KT 4500 -DZ BR OVC004 02/02 Q1019 TEMPO 6000
  • 250320Z 23006KT 200V280 3800 -DZ BR OVC004 02/01 Q1020 TEMPO 2500
  • 250250Z 23008KT 3000 -DZ BR OVC004 02/01 Q1020 TEMPO 2500
  • 250220Z 23007KT 3300 -DZ BR OVC004 02/01 Q1020 NOSIG

TAF TAF EDDH
Valide du 25 à 00h jusqu'au 26 à 06h UTC


242300Z 2500/2606 23008KT 4500 BR BKN005
TEMPO 2500/2510 2000 -DZ BKN004
PROB30
TEMPO 2500/2510 6000
BECMG 2510/2512 7000 SCT007 BKN012
PROB30
TEMPO 2512/2518 BKN015
TEMPO 2516/2606 3500 -DZ BR BKN006



MET'MAP, la Météo Aéronautique d'un coup d'oeil ! - Copyright ORBIFLY Décembre 2007 - Disclaimer

ORBIFLY MET'MAP TEAM :

Programmation & Développement : Alexandra Zaïnal
Sur une idée originale de : Baudouin d'Aumeries
Assistance à la programmation : Marc-Olivier Méhu
Soutien technique & logistique : Manuel Goepfert

Contact : metmap@orbifly.com




SOURCES & CREDITS :

   NOAA